createdAt,value
2018-09-20T00:00:08.137Z,12.87
2018-09-20T00:03:12.500Z,17.47
2018-09-20T00:06:16.851Z,21.40
2018-09-20T00:09:21.153Z,19.93
2018-09-20T00:12:25.433Z,19.47
2018-09-20T00:15:29.776Z,12.90
2018-09-20T00:18:34.099Z,18.10
2018-09-20T00:21:38.351Z,17.63
2018-09-20T00:24:42.603Z,14.83
2018-09-20T00:27:46.861Z,15.57
2018-09-20T00:30:51.213Z,14.17
2018-09-20T00:33:55.504Z,19.67
2018-09-20T00:36:59.839Z,14.47
2018-09-20T00:40:04.157Z,20.27
2018-09-20T00:43:08.472Z,20.70
2018-09-20T00:46:12.741Z,17.07
2018-09-20T00:49:17.073Z,20.83
2018-09-20T00:52:21.413Z,16.80
2018-09-20T00:55:25.761Z,17.37
2018-09-20T00:58:30.137Z,16.70
2018-09-20T01:01:34.461Z,15.90
2018-09-20T01:04:38.746Z,13.47
2018-09-20T01:07:43.032Z,16.73
2018-09-20T01:10:47.444Z,15.70
2018-09-20T01:13:51.789Z,18.30
2018-09-20T01:16:56.036Z,16.17
2018-09-20T01:20:00.295Z,21.43
2018-09-20T01:23:04.614Z,18.73
2018-09-20T01:26:08.972Z,16.97
2018-09-20T01:29:13.233Z,16.47
2018-09-20T01:32:17.556Z,19.33
2018-09-20T01:35:21.948Z,21.17
2018-09-20T01:38:26.176Z,15.33
2018-09-20T01:41:30.508Z,17.57
2018-09-20T01:44:34.855Z,20.43
2018-09-20T01:47:39.144Z,17.60
2018-09-20T01:50:43.457Z,19.23
2018-09-20T01:53:47.708Z,22.80
2018-09-20T01:56:52.063Z,24.83
2018-09-20T01:59:56.307Z,25.97
2018-09-20T02:03:00.645Z,21.83
2018-09-20T02:06:04.985Z,23.33
2018-09-20T02:09:10.480Z,24.17
2018-09-20T02:12:14.836Z,25.13
2018-09-20T02:15:19.166Z,23.07
2018-09-20T02:18:23.471Z,23.80
2018-09-20T02:21:27.925Z,17.17
2018-09-20T02:24:32.241Z,18.50
2018-09-20T02:27:36.546Z,26.07
2018-09-20T02:30:40.849Z,20.73
2018-09-20T02:33:45.184Z,26.97
2018-09-20T02:36:49.491Z,27.57
2018-09-20T02:39:53.830Z,26.50
2018-09-20T02:42:58.230Z,21.93
2018-09-20T02:46:02.489Z,32.13
2018-09-20T02:49:06.931Z,27.90
2018-09-20T02:52:11.203Z,27.80
2018-09-20T02:55:15.462Z,25.83
2018-09-20T02:58:19.721Z,26.57
2018-09-20T03:01:23.993Z,23.83
2018-09-20T03:04:28.532Z,29.73
2018-09-20T03:07:32.797Z,25.57
2018-09-20T03:10:37.036Z,23.97
2018-09-20T03:13:41.332Z,22.97
2018-09-20T03:16:45.567Z,22.10
2018-09-20T03:19:49.984Z,25.40
2018-09-20T03:22:54.285Z,22.70
2018-09-20T03:25:58.608Z,24.27
2018-09-20T03:29:03.093Z,25.83
2018-09-20T03:32:07.477Z,22.80
2018-09-20T03:35:11.727Z,26.13
2018-09-20T03:38:16.000Z,19.97
2018-09-20T03:41:20.440Z,22.40
2018-09-20T03:44:24.684Z,22.33
2018-09-20T03:47:28.961Z,24.10
2018-09-20T03:50:33.257Z,24.67
2018-09-20T03:53:37.568Z,22.93
2018-09-20T03:56:41.903Z,24.70
2018-09-20T03:59:46.283Z,21.37
2018-09-20T04:02:50.673Z,25.70
2018-09-20T04:05:54.999Z,21.33
2018-09-20T04:08:59.258Z,24.73
2018-09-20T04:12:03.602Z,20.13
2018-09-20T04:15:08.193Z,20.90
2018-09-20T04:18:12.527Z,27.80
2018-09-20T04:21:29.776Z,24.13
2018-09-20T04:24:34.093Z,22.17
2018-09-20T04:27:38.402Z,22.67
2018-09-20T04:30:42.736Z,19.87
2018-09-20T04:33:47.243Z,15.87
2018-09-20T04:36:51.568Z,21.70
2018-09-20T04:39:55.852Z,18.53
2018-09-20T04:43:00.244Z,24.83
2018-09-20T04:46:04.537Z,22.77
2018-09-20T04:49:08.837Z,27.03
2018-09-20T04:52:13.109Z,21.23
2018-09-20T04:55:17.351Z,26.40
2018-09-20T04:58:21.804Z,19.23
2018-09-20T05:01:26.082Z,17.87
2018-09-20T05:04:30.349Z,19.87
2018-09-20T05:07:34.624Z,22.73
2018-09-20T05:10:38.964Z,26.13
2018-09-20T05:13:43.324Z,21.17
2018-09-20T05:16:47.620Z,21.10
2018-09-20T05:19:51.933Z,21.27
2018-09-20T05:22:56.269Z,21.03
2018-09-20T05:26:00.608Z,22.90
2018-09-20T05:29:04.838Z,14.93
2018-09-20T05:32:09.225Z,22.17
2018-09-20T05:35:13.552Z,20.07
2018-09-20T05:38:17.851Z,15.27
2018-09-20T05:41:22.184Z,23.00
2018-09-20T05:44:26.525Z,18.33
2018-09-20T05:47:30.787Z,20.13
2018-09-20T05:50:35.210Z,20.43
2018-09-20T05:53:39.610Z,19.83
2018-09-20T05:56:43.988Z,15.97
2018-09-20T05:59:48.297Z,23.20
2018-09-20T06:02:52.569Z,21.10
2018-09-20T06:05:57.019Z,19.37
2018-09-20T06:09:01.324Z,24.50
2018-09-20T06:12:05.683Z,14.33
2018-09-20T06:15:10.011Z,15.70
2018-09-20T06:18:14.328Z,24.00
2018-09-20T06:21:18.808Z,17.50
2018-09-20T06:24:23.257Z,23.07
2018-09-20T06:27:27.577Z,16.20
2018-09-20T06:30:31.932Z,23.23
2018-09-20T06:33:36.181Z,19.00
2018-09-20T06:36:40.544Z,20.40
2018-09-20T06:39:44.845Z,20.00
2018-09-20T06:42:49.184Z,16.13
2018-09-20T06:45:53.494Z,20.93
2018-09-20T06:48:57.852Z,19.57
2018-09-20T06:52:02.100Z,16.67
2018-09-20T06:55:06.361Z,19.27
2018-09-20T06:58:10.713Z,23.10
2018-09-20T07:01:15.019Z,19.57
2018-09-20T07:04:19.337Z,14.23
2018-09-20T07:07:23.641Z,18.57
2018-09-20T07:10:27.952Z,24.07
2018-09-20T07:13:32.261Z,19.87
2018-09-20T07:16:36.610Z,13.27
2018-09-20T07:19:40.913Z,23.10
2018-09-20T07:22:45.202Z,20.73
2018-09-20T07:25:49.517Z,18.07
2018-09-20T07:28:53.894Z,23.53
2018-09-20T07:31:58.204Z,18.97
2018-09-20T07:35:02.671Z,21.37
2018-09-20T07:38:07.612Z,19.03
2018-09-20T07:41:12.134Z,20.03
2018-09-20T07:44:16.535Z,23.47
2018-09-20T07:47:20.913Z,21.10
2018-09-20T07:50:25.203Z,17.70
2018-09-20T07:53:29.582Z,17.13
2018-09-20T07:56:33.899Z,15.53
2018-09-20T07:59:38.357Z,15.90
2018-09-20T08:02:42.724Z,18.47
2018-09-20T08:05:47.040Z,19.80
2018-09-20T08:08:51.508Z,20.27
2018-09-20T08:11:55.802Z,16.23
2018-09-20T08:15:00.123Z,21.10
2018-09-20T08:18:04.438Z,16.20
2018-09-20T08:21:08.987Z,15.60
2018-09-20T08:24:13.373Z,14.00
2018-09-20T08:27:17.695Z,20.83
2018-09-20T08:30:22.286Z,20.90
2018-09-20T08:33:26.660Z,16.77
2018-09-20T08:36:31.065Z,17.83
2018-09-20T08:39:35.353Z,23.73
2018-09-20T08:42:39.716Z,24.90
2018-09-20T08:45:43.980Z,19.00
2018-09-20T08:48:48.298Z,19.77
2018-09-20T08:51:52.648Z,17.40
2018-09-20T08:54:57.054Z,22.33
2018-09-20T08:58:01.513Z,22.97
2018-09-20T09:01:05.955Z,21.30
2018-09-20T09:04:10.207Z,25.90
2018-09-20T09:07:14.588Z,28.77
2018-09-20T09:10:19.026Z,18.37
2018-09-20T09:13:23.397Z,19.53
2018-09-20T09:16:27.718Z,22.70
2018-09-20T09:19:32.039Z,19.77
2018-09-20T09:22:36.369Z,23.27
2018-09-20T09:25:40.672Z,21.23
2018-09-20T09:28:44.988Z,17.90
2018-09-20T09:31:49.373Z,18.70
2018-09-20T09:34:53.764Z,16.50
2018-09-20T09:37:58.221Z,21.43
2018-09-20T09:41:02.505Z,21.03
2018-09-20T09:44:06.912Z,22.73
2018-09-20T09:47:11.164Z,17.67
2018-09-20T09:50:15.568Z,20.27
2018-09-20T09:53:19.881Z,15.97
2018-09-20T09:56:24.191Z,16.10
2018-09-20T09:59:28.524Z,14.80
2018-09-20T10:02:32.841Z,14.93
2018-09-20T10:05:37.144Z,16.97
2018-09-20T10:08:41.457Z,15.70
2018-09-20T10:11:45.756Z,15.77
2018-09-20T10:14:50.138Z,13.47
2018-09-20T10:17:54.415Z,14.90
2018-09-20T10:20:58.740Z,17.13
2018-09-20T10:24:03.311Z,15.33
2018-09-20T10:27:07.688Z,15.40
2018-09-20T10:30:12.917Z,12.13
2018-09-20T10:33:17.231Z,14.43
2018-09-20T10:36:21.629Z,11.83
2018-09-20T10:39:25.885Z,12.40
2018-09-20T10:42:30.413Z,18.37
2018-09-20T10:45:34.824Z,21.70
2018-09-20T10:48:39.136Z,12.57
2018-09-20T10:51:43.598Z,17.60
2018-09-20T10:54:47.860Z,19.63
2018-09-20T10:57:52.205Z,19.30
2018-09-20T11:00:56.545Z,21.13
2018-09-20T11:04:00.873Z,20.70
2018-09-20T11:07:05.182Z,20.10
2018-09-20T11:10:09.499Z,18.83
2018-09-20T11:13:13.840Z,19.67
2018-09-20T11:16:18.256Z,20.13
2018-09-20T11:19:22.621Z,23.27
2018-09-20T11:22:27.490Z,20.67
2018-09-20T11:25:31.811Z,16.10
2018-09-20T11:28:36.061Z,24.30
2018-09-20T11:31:40.353Z,26.73
2018-09-20T11:34:44.669Z,19.70
2018-09-20T11:37:49.015Z,23.53
2018-09-20T11:40:53.346Z,24.80
2018-09-20T11:43:57.683Z,26.40
2018-09-20T11:47:02.008Z,20.10
2018-09-20T11:50:07.264Z,21.17
2018-09-20T11:53:11.623Z,22.20
2018-09-20T11:56:15.943Z,25.53
2018-09-20T11:59:20.241Z,17.07
2018-09-20T12:02:24.578Z,14.73
2018-09-20T12:05:28.866Z,17.27
2018-09-20T12:08:33.220Z,20.83
2018-09-20T12:11:37.469Z,16.07
2018-09-20T12:14:41.937Z,16.73
2018-09-20T12:17:46.276Z,16.70
2018-09-20T12:20:50.576Z,16.27
2018-09-20T12:23:54.864Z,15.00
2018-09-20T12:26:59.239Z,13.30
2018-09-20T12:30:03.525Z,11.57
2018-09-20T12:33:07.844Z,13.47
2018-09-20T12:36:12.196Z,14.53
2018-09-20T12:39:16.462Z,10.90
2018-09-20T12:42:20.838Z,13.73
2018-09-20T12:45:25.128Z,12.33
2018-09-20T12:48:29.488Z,11.60
2018-09-20T12:51:34.250Z,12.97
2018-09-20T12:54:38.589Z,10.50
2018-09-20T12:57:42.943Z,10.80
2018-09-20T13:00:47.257Z,12.53
2018-09-20T13:03:51.965Z,14.40
2018-09-20T13:06:56.249Z,11.17
2018-09-20T13:10:00.617Z,13.30
2018-09-20T13:13:04.967Z,12.70
2018-09-20T13:16:09.389Z,14.13
2018-09-20T13:19:13.624Z,11.67
2018-09-20T13:22:17.936Z,12.90
2018-09-20T13:25:22.273Z,9.63
2018-09-20T13:28:26.859Z,15.37
2018-09-20T13:31:31.266Z,12.90
2018-09-20T13:34:35.688Z,13.10
2018-09-20T13:37:40.114Z,13.17
2018-09-20T13:40:44.406Z,11.83
2018-09-20T13:43:48.753Z,10.10
2018-09-20T13:46:53.059Z,10.63
2018-09-20T13:49:57.377Z,16.03
2018-09-20T13:53:01.696Z,13.00
2018-09-20T13:56:06.004Z,15.03
2018-09-20T13:59:10.352Z,13.20
2018-09-20T14:02:14.652Z,16.10
2018-09-20T14:05:18.991Z,15.10
2018-09-20T14:08:23.272Z,9.80
2018-09-20T14:11:27.619Z,8.40
2018-09-20T14:14:31.946Z,12.67
2018-09-20T14:17:36.589Z,12.07
2018-09-20T14:20:40.907Z,12.10
2018-09-20T14:23:45.250Z,10.53
2018-09-20T14:26:49.602Z,11.10
2018-09-20T14:29:53.930Z,10.20
2018-09-20T14:32:58.344Z,13.80
2018-09-20T14:36:02.676Z,13.10
2018-09-20T14:39:10.004Z,9.00
2018-09-20T14:42:14.326Z,13.07
2018-09-20T14:45:18.715Z,11.93
2018-09-20T14:48:23.015Z,10.47
2018-09-20T14:51:27.336Z,12.83
2018-09-20T14:54:31.758Z,12.43
2018-09-20T14:57:36.043Z,9.80
2018-09-20T15:00:40.493Z,9.73
2018-09-20T15:03:44.852Z,13.60
2018-09-20T15:06:49.125Z,9.20
2018-09-20T15:09:53.478Z,16.70
2018-09-20T15:12:57.756Z,14.93
2018-09-20T15:16:02.157Z,12.70
2018-09-20T15:19:06.632Z,13.37
2018-09-20T15:22:10.938Z,10.80
2018-09-20T15:25:15.254Z,12.90
2018-09-20T15:28:19.603Z,12.13
2018-09-20T15:31:24.035Z,13.80
2018-09-20T15:34:28.415Z,14.60
2018-09-20T15:37:32.748Z,12.57
2018-09-20T15:40:37.034Z,9.17
2018-09-20T15:43:41.373Z,13.00
2018-09-20T15:46:45.697Z,14.33
2018-09-20T15:49:50.015Z,14.13
2018-09-20T15:52:54.346Z,17.13
2018-09-20T15:55:58.689Z,13.43
2018-09-20T15:59:02.981Z,12.23
2018-09-20T16:02:07.492Z,12.20
2018-09-20T16:05:11.861Z,13.90
2018-09-20T16:08:17.200Z,13.10
2018-09-20T16:11:21.499Z,8.17
2018-09-20T16:14:25.806Z,13.80
2018-09-20T16:17:30.114Z,11.87
2018-09-20T16:20:34.433Z,10.77
2018-09-20T16:23:38.844Z,10.73
2018-09-20T16:26:43.180Z,10.80
2018-09-20T16:32:22.549Z,14.50
2018-09-20T16:36:14.613Z,15.57
2018-09-20T16:39:22.220Z,10.47
2018-09-20T16:42:31.999Z,11.73
2018-09-20T16:45:36.354Z,15.40
2018-09-20T16:48:40.754Z,12.80
2018-09-20T16:51:45.088Z,15.00
2018-09-20T16:54:49.476Z,16.90
2018-09-20T16:57:53.776Z,12.93
2018-09-20T17:00:58.075Z,14.77
2018-09-20T17:04:02.400Z,12.60
2018-09-20T17:07:06.834Z,19.30
2018-09-20T17:10:11.289Z,15.07
2018-09-20T17:13:16.244Z,20.87
2018-09-20T17:16:20.768Z,14.57
2018-09-20T17:19:24.971Z,9.67
2018-09-20T17:22:29.304Z,13.50
2018-09-20T17:25:33.730Z,14.40
2018-09-20T17:28:38.383Z,14.80
2018-09-20T17:31:42.777Z,16.97
2018-09-20T17:34:48.122Z,12.47
2018-09-20T17:37:53.696Z,13.30
2018-09-20T17:41:04.479Z,15.07
2018-09-20T17:44:09.605Z,15.20
2018-09-20T17:47:13.969Z,17.13
2018-09-20T17:50:18.613Z,12.03
2018-09-20T17:53:23.572Z,15.83
2018-09-20T17:56:28.888Z,15.23
2018-09-20T17:59:33.427Z,14.83
2018-09-20T18:02:37.890Z,15.57
2018-09-20T18:05:42.410Z,17.97
2018-09-20T18:08:46.778Z,17.83
2018-09-20T18:11:51.114Z,14.57
2018-09-20T18:14:55.755Z,17.57
2018-09-20T18:18:00.211Z,21.47
2018-09-20T18:21:04.786Z,17.53
2018-09-20T18:24:09.206Z,18.73
2018-09-20T18:27:13.592Z,18.93
2018-09-20T18:30:18.107Z,13.07
2018-09-20T18:33:22.941Z,14.67
2018-09-20T18:36:27.338Z,17.17
2018-09-20T18:39:32.126Z,17.13
2018-09-20T18:42:36.781Z,16.37
2018-09-20T18:45:41.382Z,18.63
2018-09-20T18:48:46.525Z,19.73
2018-09-20T18:51:51.232Z,18.00
2018-09-20T18:54:55.995Z,22.93
2018-09-20T18:58:00.620Z,22.73
2018-09-20T19:01:05.560Z,22.67
2018-09-20T19:04:10.253Z,18.57
2018-09-20T19:07:15.191Z,17.87
2018-09-20T19:10:19.900Z,20.20
2018-09-20T19:13:24.760Z,17.90
2018-09-20T19:16:29.236Z,16.40
2018-09-20T19:19:34.057Z,19.73
2018-09-20T19:22:39.473Z,16.00
2018-09-20T19:25:44.216Z,25.97
2018-09-20T19:28:49.047Z,23.27
2018-09-20T19:31:53.968Z,24.37
2018-09-20T19:34:58.607Z,21.07
2018-09-20T19:38:03.381Z,21.10
2018-09-20T19:41:08.042Z,22.40
2018-09-20T19:44:13.783Z,18.10
2018-09-20T19:47:18.923Z,17.83
2018-09-20T19:50:23.630Z,20.40
2018-09-20T19:53:59.791Z,19.20
2018-09-20T19:57:04.516Z,23.57
2018-09-20T20:00:09.402Z,20.27
2018-09-20T20:03:14.182Z,20.37
2018-09-20T20:06:18.663Z,18.83
2018-09-20T20:09:23.406Z,24.33
2018-09-20T20:12:27.764Z,23.17
2018-09-20T20:15:32.181Z,22.73
2018-09-20T20:18:36.645Z,20.47
2018-09-20T20:21:41.062Z,24.03
2018-09-20T20:24:45.749Z,21.70
2018-09-20T20:27:50.214Z,21.70
2018-09-20T20:30:55.125Z,19.97
2018-09-20T20:33:59.561Z,17.90
2018-09-20T20:37:04.422Z,16.27
2018-09-20T20:40:08.898Z,20.73
2018-09-20T20:43:13.636Z,21.20
2018-09-20T20:46:17.910Z,18.47
2018-09-20T20:49:22.313Z,21.23
2018-09-20T20:52:26.846Z,24.90
2018-09-20T20:55:31.187Z,20.77
2018-09-20T20:58:35.714Z,20.57
2018-09-20T21:01:40.049Z,23.03
2018-09-20T21:04:44.364Z,19.10
2018-09-20T21:07:49.043Z,20.97
2018-09-20T21:10:53.431Z,20.10
2018-09-20T21:13:58.205Z,17.60
2018-09-20T21:17:02.642Z,21.63
2018-09-20T21:20:07.029Z,17.07
2018-09-20T21:23:11.865Z,18.00
2018-09-20T21:26:16.264Z,19.03
2018-09-20T21:29:20.839Z,19.23
2018-09-20T21:32:25.201Z,18.50
2018-09-20T21:35:29.675Z,21.50
2018-09-20T21:38:33.989Z,19.73
2018-09-20T21:41:38.506Z,19.43
2018-09-20T21:44:47.933Z,18.60
2018-09-20T21:47:52.652Z,19.57
2018-09-20T21:50:56.993Z,12.90
2018-09-20T21:54:01.365Z,17.93
2018-09-20T21:57:05.756Z,18.73
2018-09-20T22:00:10.370Z,17.87
2018-09-20T22:03:14.654Z,18.43
2018-09-20T22:06:18.963Z,14.30
2018-09-20T22:09:23.290Z,15.00
2018-09-20T22:12:27.582Z,15.70
2018-09-20T22:15:32.404Z,17.73
2018-09-20T22:18:36.758Z,16.17
2018-09-20T22:21:41.369Z,18.40
2018-09-20T22:24:45.694Z,24.33
2018-09-20T22:27:50.262Z,19.33
2018-09-20T22:30:54.538Z,23.70
2018-09-20T22:33:58.966Z,14.03
2018-09-20T22:37:03.290Z,22.00
2018-09-20T22:40:07.786Z,24.03
2018-09-20T22:43:12.102Z,20.33
2018-09-20T22:46:16.446Z,20.60
2018-09-20T22:49:20.741Z,22.20
2018-09-20T22:52:25.062Z,14.80
2018-09-20T22:55:29.335Z,20.67
2018-09-20T22:58:35.207Z,24.93
2018-09-20T23:01:39.511Z,17.93
2018-09-20T23:04:43.888Z,20.53
2018-09-20T23:07:48.293Z,19.23
2018-09-20T23:10:52.633Z,21.20
2018-09-20T23:13:56.927Z,18.60
2018-09-20T23:17:01.292Z,19.40
2018-09-20T23:20:06.050Z,17.07
2018-09-20T23:23:10.404Z,18.53
2018-09-20T23:26:14.875Z,17.60
2018-09-20T23:29:19.164Z,14.40
2018-09-20T23:32:23.462Z,18.07
2018-09-20T23:35:27.886Z,17.53
2018-09-20T23:38:33.041Z,17.07
2018-09-20T23:41:37.465Z,12.63
2018-09-20T23:44:41.859Z,17.70
2018-09-20T23:47:46.210Z,24.37
2018-09-20T23:50:50.494Z,15.80
2018-09-20T23:53:55.071Z,15.47
2018-09-20T23:56:59.444Z,17.93
